createdAt,value
2018-10-06T00:00:02.418Z,6.90
2018-10-06T00:01:02.381Z,5.60
2018-10-06T00:02:02.366Z,5.20
2018-10-06T00:03:02.357Z,4.20
2018-10-06T00:04:02.368Z,4.00
2018-10-06T00:05:02.328Z,5.00
2018-10-06T00:06:02.353Z,5.60
2018-10-06T00:07:02.308Z,5.70
2018-10-06T00:08:02.305Z,6.20
2018-10-06T00:09:02.282Z,6.10
2018-10-06T00:10:02.299Z,4.10
2018-10-06T00:11:02.266Z,4.20
2018-10-06T00:12:02.253Z,5.90
2018-10-06T00:13:02.243Z,6.00
2018-10-06T00:14:02.230Z,5.80
2018-10-06T00:15:02.251Z,4.20
2018-10-06T00:16:02.204Z,6.70
2018-10-06T00:17:02.196Z,7.10
2018-10-06T00:18:02.185Z,3.90
2018-10-06T00:19:02.174Z,6.00
2018-10-06T00:20:02.188Z,6.30
2018-10-06T00:21:02.184Z,6.90
2018-10-06T00:22:02.309Z,5.50
2018-10-06T00:23:02.124Z,7.30
2018-10-06T00:24:02.126Z,5.60
2018-10-06T00:25:02.106Z,7.60
2018-10-06T00:26:02.096Z,4.70
2018-10-06T00:27:02.115Z,5.60
2018-10-06T00:28:02.072Z,6.20
2018-10-06T00:29:02.064Z,7.00
2018-10-06T00:30:02.050Z,6.50
2018-10-06T00:31:02.048Z,4.90
2018-10-06T00:32:02.055Z,4.90
2018-10-06T00:33:02.038Z,4.80
2018-10-06T00:34:02.001Z,6.30
2018-10-06T00:35:01.993Z,6.00
2018-10-06T00:36:01.987Z,5.00
2018-10-06T00:37:01.969Z,6.70
2018-10-06T00:38:01.988Z,6.20
2018-10-06T00:39:01.945Z,6.60
2018-10-06T00:40:01.935Z,6.90
2018-10-06T00:41:01.923Z,5.10
2018-10-06T00:42:01.917Z,4.80
2018-10-06T00:43:01.930Z,5.50
2018-10-06T00:44:01.900Z,4.20
2018-10-06T00:45:01.879Z,5.40
2018-10-06T00:46:01.869Z,5.50
2018-10-06T00:47:01.863Z,5.10
2018-10-06T00:48:01.893Z,6.40
2018-10-06T00:49:01.832Z,4.60
2018-10-06T00:50:01.824Z,6.40
2018-10-06T00:51:01.818Z,5.20
2018-10-06T00:52:01.810Z,4.70
2018-10-06T00:53:01.820Z,4.10
2018-10-06T00:54:01.776Z,4.90
2018-10-06T00:55:01.774Z,5.00
2018-10-06T00:56:01.754Z,4.10
2018-10-06T00:57:01.768Z,5.60
2018-10-06T00:58:01.746Z,5.90
2018-10-06T00:59:01.720Z,6.60
2018-10-06T01:00:01.835Z,4.40
2018-10-06T01:01:01.697Z,5.90
2018-10-06T01:02:01.687Z,5.00
2018-10-06T01:03:01.723Z,7.00
2018-10-06T01:04:01.663Z,4.00
2018-10-06T01:05:01.657Z,5.10
2018-10-06T01:06:01.645Z,5.90
2018-10-06T01:07:01.640Z,6.50
2018-10-06T01:08:01.657Z,4.80
2018-10-06T01:09:01.609Z,4.60
2018-10-06T01:10:01.601Z,6.90
2018-10-06T01:11:01.588Z,6.70
2018-10-06T01:12:01.574Z,5.70
2018-10-06T01:13:01.599Z,4.10
2018-10-06T01:14:01.561Z,4.60
2018-10-06T01:15:01.550Z,5.60
2018-10-06T01:16:01.532Z,4.60
2018-10-06T01:17:01.518Z,5.10
2018-10-06T01:18:01.540Z,5.10
2018-10-06T01:19:01.523Z,5.50
2018-10-06T01:20:01.484Z,5.90
2018-10-06T01:21:01.535Z,5.50
2018-10-06T01:22:01.474Z,4.80
2018-10-06T01:23:01.479Z,6.50
2018-10-06T01:24:01.438Z,4.60
2018-10-06T01:25:01.429Z,4.30
2018-10-06T01:26:01.454Z,6.60
2018-10-06T01:27:01.406Z,4.00
2018-10-06T01:28:01.401Z,7.20
2018-10-06T01:29:01.396Z,5.10
2018-10-06T01:30:01.384Z,5.00
2018-10-06T01:31:01.436Z,5.70
2018-10-06T01:32:01.476Z,6.40
2018-10-06T01:33:01.368Z,5.40
2018-10-06T01:34:01.326Z,7.10
2018-10-06T01:35:01.315Z,5.10
2018-10-06T01:36:01.315Z,6.60
2018-10-06T01:37:01.321Z,5.40
2018-10-06T01:38:01.304Z,5.40
2018-10-06T01:39:01.299Z,4.60
2018-10-06T01:40:01.258Z,6.50
2018-10-06T01:41:01.256Z,4.50
2018-10-06T01:42:01.243Z,6.70
2018-10-06T01:43:01.261Z,5.10
2018-10-06T01:44:01.213Z,6.20
2018-10-06T01:45:01.202Z,7.10
2018-10-06T01:46:01.193Z,5.60
2018-10-06T01:47:01.185Z,6.40
2018-10-06T01:48:01.196Z,6.70
2018-10-06T01:49:01.160Z,5.80
2018-10-06T01:50:01.278Z,6.50
2018-10-06T01:51:01.175Z,4.80
2018-10-06T01:52:01.122Z,4.00
2018-10-06T01:53:01.114Z,7.00
2018-10-06T01:54:01.103Z,5.20
2018-10-06T01:55:01.129Z,5.30
2018-10-06T01:56:01.082Z,6.00
2018-10-06T01:57:01.073Z,5.20
2018-10-06T01:58:01.053Z,6.40
2018-10-06T01:59:01.045Z,4.70
2018-10-06T02:00:01.049Z,7.20
2018-10-06T02:01:01.061Z,5.50
2018-10-06T02:02:01.012Z,6.90
2018-10-06T02:03:01.003Z,4.20
2018-10-06T02:04:00.999Z,8.00
2018-10-06T02:05:00.974Z,5.80
2018-10-06T02:06:00.989Z,4.50
2018-10-06T02:07:00.956Z,7.40
2018-10-06T02:08:00.942Z,6.20
2018-10-06T02:09:00.931Z,4.70
2018-10-06T02:10:00.930Z,4.80
2018-10-06T02:11:00.938Z,4.60
2018-10-06T02:12:00.917Z,5.80
2018-10-06T02:13:00.883Z,5.00
2018-10-06T02:14:00.872Z,4.20
2018-10-06T02:15:00.862Z,7.10
2018-10-06T02:16:00.864Z,5.90
2018-10-06T02:17:00.848Z,5.30
2018-10-06T02:18:00.827Z,5.40
2018-10-06T02:19:00.818Z,6.60
2018-10-06T02:20:00.808Z,5.20
2018-10-06T02:21:00.823Z,5.50
2018-10-06T02:22:00.784Z,5.30
2018-10-06T02:23:00.797Z,6.30
2018-10-06T02:24:00.823Z,5.40
2018-10-06T02:25:00.750Z,7.00
2018-10-06T02:26:00.756Z,6.30
2018-10-06T02:27:00.727Z,5.50
2018-10-06T02:28:00.717Z,5.60
2018-10-06T02:29:00.748Z,6.40
2018-10-06T02:30:00.840Z,5.60
2018-10-06T02:31:00.680Z,6.30
2018-10-06T02:32:00.697Z,6.20
2018-10-06T02:33:00.661Z,8.20
2018-10-06T02:34:00.657Z,7.20
2018-10-06T02:35:00.637Z,6.30
2018-10-06T02:36:00.661Z,8.40
2018-10-06T02:37:00.625Z,6.60
2018-10-06T02:38:00.609Z,6.80
2018-10-06T02:39:00.592Z,5.40
2018-10-06T02:40:00.582Z,7.10
2018-10-06T02:41:00.604Z,5.90
2018-10-06T02:42:00.560Z,5.40
2018-10-06T02:43:00.552Z,6.10
2018-10-06T02:44:00.534Z,5.80
2018-10-06T02:45:00.523Z,5.70
2018-10-06T02:46:00.539Z,5.40
2018-10-06T02:47:00.502Z,8.30
2018-10-06T02:48:00.490Z,5.70
2018-10-06T02:49:00.485Z,5.80
2018-10-06T02:50:00.667Z,6.00
2018-10-06T02:51:00.467Z,6.60
2018-10-06T02:52:00.445Z,6.90
2018-10-06T02:53:00.433Z,6.40
2018-10-06T02:54:00.450Z,6.90
2018-10-06T02:55:00.435Z,7.40
2018-10-06T02:56:00.434Z,6.10
2018-10-06T02:57:00.396Z,7.10
2018-10-06T02:58:00.386Z,8.50
2018-10-06T02:59:00.365Z,6.80
2018-10-06T03:00:00.357Z,5.70
2018-10-06T03:01:00.368Z,5.20
2018-10-06T03:02:00.332Z,9.30
2018-10-06T03:03:00.331Z,5.50
2018-10-06T03:04:00.312Z,5.10
2018-10-06T03:05:00.298Z,6.00
2018-10-06T03:06:00.312Z,6.40
2018-10-06T03:07:00.284Z,6.90
2018-10-06T03:08:00.265Z,7.80
2018-10-06T03:09:00.262Z,5.20
2018-10-06T03:10:00.241Z,6.10
2018-10-06T03:11:00.260Z,7.90
2018-10-06T03:12:00.218Z,5.70
2018-10-06T03:13:00.207Z,6.10
2018-10-06T03:14:00.196Z,6.80
2018-10-06T03:15:00.203Z,5.70
2018-10-06T03:16:00.204Z,6.60
2018-10-06T03:17:00.190Z,7.30
2018-10-06T03:18:00.175Z,6.00
2018-10-06T03:19:00.166Z,5.30
2018-10-06T03:20:00.128Z,5.50
2018-10-06T03:21:00.121Z,7.30
2018-10-06T03:22:00.108Z,6.70
2018-10-06T03:23:00.101Z,5.90
2018-10-06T03:24:00.113Z,6.30
2018-10-06T03:25:00.078Z,7.10
2018-10-06T03:26:00.064Z,6.20
2018-10-06T03:27:00.052Z,8.90
2018-10-06T03:28:00.038Z,5.40
2018-10-06T03:29:00.051Z,5.70
2018-10-06T03:30:00.052Z,6.50
2018-10-06T03:31:00.012Z,5.60
2018-10-06T03:32:00.003Z,6.20
2018-10-06T03:32:59.982Z,8.00
2018-10-06T03:33:59.975Z,6.00
2018-10-06T03:34:59.989Z,6.70
2018-10-06T03:35:59.963Z,8.50
2018-10-06T03:36:59.937Z,5.10
2018-10-06T03:37:59.932Z,8.70
2018-10-06T03:38:59.918Z,9.00
2018-10-06T03:39:59.926Z,7.50
2018-10-06T03:40:59.914Z,7.50
2018-10-06T03:41:59.890Z,7.10
2018-10-06T03:42:59.877Z,5.80
2018-10-06T03:43:59.860Z,6.20
2018-10-06T03:44:59.863Z,6.60
2018-10-06T03:45:59.860Z,6.50
2018-10-06T03:46:59.852Z,7.90
2018-10-06T03:47:59.814Z,6.20
2018-10-06T03:48:59.806Z,9.80
2018-10-06T03:49:59.790Z,4.90
2018-10-06T03:50:59.805Z,6.90
2018-10-06T03:51:59.767Z,5.40
2018-10-06T03:52:59.782Z,5.40
2018-10-06T03:53:59.750Z,5.30
2018-10-06T03:54:59.737Z,7.20
2018-10-06T03:55:59.722Z,8.20
2018-10-06T03:56:59.713Z,6.20
2018-10-06T03:57:59.943Z,5.90
2018-10-06T03:58:59.692Z,7.40
2018-10-06T03:59:59.677Z,6.60
2018-10-06T04:00:59.665Z,5.40
2018-10-06T04:01:59.653Z,7.70
2018-10-06T04:02:59.675Z,5.70
2018-10-06T04:03:59.633Z,6.60
2018-10-06T04:04:59.624Z,6.30
2018-10-06T04:05:59.608Z,6.60
2018-10-06T04:06:59.620Z,7.10
2018-10-06T04:07:59.590Z,7.30
2018-10-06T04:08:59.583Z,6.00
2018-10-06T04:09:59.563Z,6.50
2018-10-06T04:10:59.576Z,7.20
2018-10-06T04:11:59.544Z,9.70
2018-10-06T04:12:59.529Z,8.10
2018-10-06T04:13:59.528Z,5.80
2018-10-06T04:14:59.509Z,6.40
2018-10-06T04:15:59.530Z,7.10
2018-10-06T04:16:59.484Z,5.80
2018-10-06T04:17:59.472Z,6.20
2018-10-06T04:18:59.463Z,8.50
2018-10-06T04:19:59.450Z,6.50
2018-10-06T04:20:59.470Z,7.60
2018-10-06T04:21:59.441Z,8.60
2018-10-06T04:22:59.417Z,5.60
2018-10-06T04:23:59.409Z,8.00
2018-10-06T04:24:59.398Z,6.30
2018-10-06T04:25:59.406Z,7.50
2018-10-06T04:26:59.376Z,7.90
2018-10-06T04:27:59.372Z,6.40
2018-10-06T04:28:59.353Z,5.80
2018-10-06T04:29:59.368Z,8.10
2018-10-06T04:30:59.328Z,8.00
2018-10-06T04:31:59.314Z,8.90
2018-10-06T04:32:59.304Z,7.50
2018-10-06T04:33:59.330Z,8.20
2018-10-06T04:34:59.286Z,5.70
2018-10-06T04:35:59.280Z,7.70
2018-10-06T04:36:59.258Z,7.50
2018-10-06T04:37:59.249Z,5.70
2018-10-06T04:38:59.268Z,8.00
2018-10-06T04:39:59.237Z,6.00
2018-10-06T04:40:59.213Z,7.70
2018-10-06T04:41:59.207Z,5.30
2018-10-06T04:42:59.196Z,6.70
2018-10-06T04:43:59.210Z,8.20
2018-10-06T04:44:59.173Z,9.20
2018-10-06T04:45:59.171Z,6.30
2018-10-06T04:46:59.146Z,8.50
2018-10-06T04:47:59.142Z,7.50
2018-10-06T04:48:59.156Z,6.80
2018-10-06T04:49:59.113Z,6.40
2018-10-06T04:50:59.104Z,6.50
2018-10-06T04:51:59.123Z,6.80
2018-10-06T04:52:59.086Z,5.20
2018-10-06T04:53:59.094Z,7.70
2018-10-06T04:54:59.063Z,8.10
2018-10-06T04:55:59.077Z,10.50
2018-10-06T04:56:59.040Z,8.40
2018-10-06T04:57:59.025Z,9.60
2018-10-06T04:58:59.010Z,7.40
2018-10-06T04:59:59.025Z,7.10
2018-10-06T05:00:58.994Z,9.20
2018-10-06T05:01:58.978Z,9.90
2018-10-06T05:02:58.973Z,7.50
2018-10-06T05:03:58.983Z,8.20
2018-10-06T05:04:58.951Z,8.00
2018-10-06T05:05:58.931Z,9.00
2018-10-06T05:06:58.919Z,7.70
2018-10-06T05:07:58.948Z,7.70
2018-10-06T05:08:58.925Z,7.90
2018-10-06T05:09:58.891Z,8.40
2018-10-06T05:10:58.881Z,6.50
2018-10-06T05:11:58.868Z,10.00
2018-10-06T05:12:58.861Z,7.80
2018-10-06T05:13:58.863Z,8.80
2018-10-06T05:14:58.830Z,8.00
2018-10-06T05:15:58.822Z,7.70
2018-10-06T05:16:58.805Z,6.80
2018-10-06T05:17:58.960Z,7.10
2018-10-06T05:18:58.808Z,6.40
2018-10-06T05:19:58.804Z,6.80
2018-10-06T05:20:58.775Z,8.70
2018-10-06T05:21:58.759Z,7.20
2018-10-06T05:22:58.739Z,7.40
2018-10-06T05:23:58.777Z,8.10
2018-10-06T05:24:58.718Z,7.70
2018-10-06T05:25:58.708Z,8.60
2018-10-06T05:26:58.694Z,7.00
2018-10-06T05:27:58.687Z,9.50
2018-10-06T05:28:58.715Z,8.90
2018-10-06T05:29:58.662Z,10.60
2018-10-06T05:30:58.649Z,8.90
2018-10-06T05:31:58.640Z,7.40
2018-10-06T05:32:58.631Z,6.90
2018-10-06T05:33:58.705Z,7.20
2018-10-06T05:34:58.620Z,6.70
2018-10-06T05:35:58.665Z,9.10
2018-10-06T05:36:58.581Z,7.50
2018-10-06T05:37:58.572Z,8.70
2018-10-06T05:38:58.593Z,8.90
2018-10-06T05:39:58.551Z,7.80
2018-10-06T05:40:58.544Z,7.70
2018-10-06T05:41:58.525Z,8.80
2018-10-06T05:42:58.540Z,8.30
2018-10-06T05:43:58.502Z,9.50
2018-10-06T05:44:58.516Z,8.30
2018-10-06T05:45:58.740Z,8.90
2018-10-06T05:46:58.472Z,7.20
2018-10-06T05:47:58.463Z,9.00
2018-10-06T05:48:58.452Z,9.70
2018-10-06T05:49:58.460Z,8.80
2018-10-06T05:50:58.454Z,8.00
2018-10-06T05:51:58.425Z,11.00
2018-10-06T05:52:58.410Z,9.90
2018-10-06T05:53:58.392Z,10.10
2018-10-06T05:54:58.378Z,10.80
2018-10-06T05:55:58.396Z,9.40
2018-10-06T05:56:58.406Z,11.20
2018-10-06T05:57:58.372Z,12.10
2018-10-06T05:58:58.359Z,10.70
2018-10-06T05:59:58.321Z,9.70
2018-10-06T06:00:58.314Z,11.20
2018-10-06T06:01:58.326Z,11.30
2018-10-06T06:02:58.297Z,14.50
2018-10-06T06:03:58.283Z,9.50
2018-10-06T06:04:58.267Z,10.50
2018-10-06T06:05:58.254Z,9.90
2018-10-06T06:06:58.269Z,11.00
2018-10-06T06:07:58.231Z,8.70
2018-10-06T06:08:58.220Z,10.50
2018-10-06T06:09:58.281Z,10.00
2018-10-06T06:10:58.203Z,9.30
2018-10-06T06:11:58.218Z,9.90
2018-10-06T06:12:58.175Z,11.60
2018-10-06T06:13:58.166Z,12.10
2018-10-06T06:14:58.154Z,9.50
2018-10-06T06:15:58.156Z,9.40
2018-10-06T06:16:58.158Z,10.30
2018-10-06T06:17:58.142Z,10.80
2018-10-06T06:18:58.130Z,8.60
2018-10-06T06:19:58.097Z,10.40
2018-10-06T06:20:58.115Z,11.40
2018-10-06T06:21:58.078Z,10.30
2018-10-06T06:22:58.065Z,9.50
2018-10-06T06:23:58.124Z,9.60
2018-10-06T06:24:58.042Z,11.60
2018-10-06T06:25:58.057Z,10.70
2018-10-06T06:26:58.023Z,11.20
2018-10-06T06:27:58.185Z,11.10
2018-10-06T06:28:58.022Z,12.00
2018-10-06T06:29:57.984Z,13.40
2018-10-06T06:30:57.998Z,10.50
2018-10-06T06:31:57.983Z,11.50
2018-10-06T06:32:57.951Z,12.40
2018-10-06T06:33:57.959Z,11.20
2018-10-06T06:34:57.929Z,14.10
2018-10-06T06:35:57.939Z,11.20
2018-10-06T06:36:57.925Z,11.50
2018-10-06T06:37:57.894Z,12.10
2018-10-06T06:38:57.887Z,13.00
2018-10-06T06:39:57.879Z,12.00
2018-10-06T06:40:57.885Z,12.40
2018-10-06T06:41:57.849Z,11.70
2018-10-06T06:42:57.864Z,8.70
2018-10-06T06:43:57.979Z,12.70
2018-10-06T06:44:57.819Z,10.40
2018-10-06T06:45:57.834Z,10.60
2018-10-06T06:46:57.796Z,10.60
2018-10-06T06:47:57.788Z,10.50
2018-10-06T06:48:57.775Z,10.70
2018-10-06T06:49:57.781Z,11.70
2018-10-06T06:50:57.776Z,11.30
2018-10-06T06:51:57.735Z,11.90
2018-10-06T06:52:57.738Z,10.40
2018-10-06T06:53:57.713Z,12.20
2018-10-06T06:54:57.744Z,11.70
2018-10-06T06:55:57.720Z,11.90
2018-10-06T06:56:57.679Z,12.00
2018-10-06T06:57:57.669Z,11.90
2018-10-06T06:58:57.663Z,14.10
2018-10-06T06:59:57.650Z,14.50
2018-10-06T07:00:57.661Z,14.40
2018-10-06T07:01:57.655Z,12.30
2018-10-06T07:02:57.611Z,14.30
2018-10-06T07:03:57.601Z,14.60
2018-10-06T07:04:57.589Z,15.00
2018-10-06T07:05:57.578Z,15.10
2018-10-06T07:06:57.594Z,13.10
2018-10-06T07:07:57.561Z,16.00
2018-10-06T07:08:57.543Z,15.30
2018-10-06T07:09:57.540Z,11.70
2018-10-06T07:10:57.523Z,14.70
2018-10-06T07:11:57.551Z,14.30
2018-10-06T07:12:57.503Z,16.20
2018-10-06T07:13:57.494Z,15.10
2018-10-06T07:14:57.476Z,16.20
2018-10-06T07:15:57.465Z,15.60
2018-10-06T07:16:57.477Z,15.80
2018-10-06T07:17:57.444Z,14.30
2018-10-06T07:18:57.433Z,17.20
2018-10-06T07:19:57.565Z,17.80
2018-10-06T07:20:57.437Z,20.90
2018-10-06T07:21:57.400Z,18.20
2018-10-06T07:22:57.416Z,19.20
2018-10-06T07:23:57.376Z,17.60
2018-10-06T07:24:57.364Z,19.00
2018-10-06T07:25:57.365Z,17.60
2018-10-06T07:26:57.381Z,17.00
2018-10-06T07:27:57.334Z,13.90
2018-10-06T07:28:57.320Z,14.00
2018-10-06T07:29:57.307Z,13.70
2018-10-06T07:30:57.304Z,13.40
2018-10-06T07:31:57.315Z,13.30
2018-10-06T07:32:57.290Z,12.30
2018-10-06T07:33:57.263Z,11.00
2018-10-06T07:34:57.281Z,12.80
2018-10-06T07:35:57.242Z,12.20
2018-10-06T07:36:57.233Z,11.90
2018-10-06T07:37:57.233Z,15.40
2018-10-06T07:38:57.206Z,14.80
2018-10-06T07:39:57.221Z,12.40
2018-10-06T07:40:57.206Z,14.30
2018-10-06T07:41:57.176Z,12.60
2018-10-06T07:42:57.177Z,11.50
2018-10-06T07:43:57.154Z,13.60
2018-10-06T07:44:57.265Z,11.40
2018-10-06T07:45:57.163Z,11.60
2018-10-06T07:46:57.116Z,11.50
2018-10-06T07:47:57.116Z,11.50
2018-10-06T07:48:57.101Z,11.20
2018-10-06T07:49:57.086Z,12.10
2018-10-06T07:50:57.092Z,13.50
2018-10-06T07:51:57.064Z,12.60
2018-10-06T07:52:57.076Z,13.70
2018-10-06T07:53:57.036Z,11.40
2018-10-06T07:54:57.030Z,12.20
2018-10-06T07:55:57.045Z,14.30
2018-10-06T07:56:57.099Z,12.00
2018-10-06T07:57:57.001Z,12.10
2018-10-06T07:58:56.979Z,11.20
2018-10-06T07:59:56.971Z,10.50
2018-10-06T08:00:56.957Z,10.10
2018-10-06T08:01:56.983Z,10.80
2018-10-06T08:02:56.939Z,11.40
2018-10-06T08:03:56.927Z,10.30
2018-10-06T08:04:56.913Z,9.80
2018-10-06T08:05:56.925Z,11.00
2018-10-06T08:06:56.900Z,10.20
2018-10-06T08:07:56.912Z,9.00
2018-10-06T08:08:56.886Z,9.40
2018-10-06T08:09:56.862Z,9.40
2018-10-06T08:10:56.848Z,9.40
2018-10-06T08:11:56.859Z,10.50
2018-10-06T08:12:56.826Z,13.40
2018-10-06T08:13:56.841Z,9.50
2018-10-06T08:14:56.826Z,11.30
2018-10-06T08:15:56.931Z,9.60
2018-10-06T08:16:56.812Z,9.80
2018-10-06T08:17:56.767Z,8.90
2018-10-06T08:18:56.768Z,9.40
2018-10-06T08:19:56.749Z,9.60
2018-10-06T08:20:56.733Z,10.10
2018-10-06T08:21:56.831Z,9.30
2018-10-06T08:22:56.715Z,10.30
2018-10-06T08:23:56.698Z,10.60
2018-10-06T08:24:56.686Z,9.70
2018-10-06T08:25:56.676Z,9.50
2018-10-06T08:26:56.704Z,11.20
2018-10-06T08:27:56.660Z,9.90
2018-10-06T08:28:56.654Z,8.80
2018-10-06T08:29:56.630Z,9.20
2018-10-06T08:30:56.623Z,9.30
2018-10-06T08:31:56.630Z,8.60
2018-10-06T08:32:56.619Z,10.10
2018-10-06T08:33:56.621Z,9.60
2018-10-06T08:34:56.599Z,9.80
2018-10-06T08:35:56.592Z,8.80
2018-10-06T08:36:56.555Z,10.20
2018-10-06T08:37:56.539Z,8.00
2018-10-06T08:38:56.572Z,7.60
2018-10-06T08:39:56.531Z,8.90
2018-10-06T08:40:56.511Z,8.30
2018-10-06T08:41:56.499Z,9.70
2018-10-06T08:42:56.493Z,8.80
2018-10-06T08:43:56.495Z,8.00
2018-10-06T08:44:56.468Z,8.60
2018-10-06T08:45:56.459Z,7.70
2018-10-06T08:46:56.449Z,8.20
2018-10-06T08:47:56.464Z,9.00
2018-10-06T08:48:56.420Z,7.50
2018-10-06T08:49:56.506Z,7.10
2018-10-06T08:50:56.397Z,9.00
2018-10-06T08:51:56.385Z,8.70
2018-10-06T08:52:56.483Z,7.50
2018-10-06T08:53:56.361Z,8.30
2018-10-06T08:54:56.356Z,7.20
2018-10-06T08:55:56.386Z,7.90
2018-10-06T08:56:56.327Z,6.40
2018-10-06T08:57:56.339Z,7.40
2018-10-06T08:58:56.311Z,8.60
2018-10-06T08:59:56.299Z,7.40
2018-10-06T09:00:56.315Z,7.50
2018-10-06T09:01:56.270Z,6.90
2018-10-06T09:02:56.259Z,6.70
2018-10-06T09:03:56.248Z,6.30
2018-10-06T09:04:56.238Z,6.20
2018-10-06T09:05:56.256Z,6.40
2018-10-06T09:06:56.235Z,6.80
2018-10-06T09:07:56.202Z,7.60
2018-10-06T09:08:56.192Z,6.60
2018-10-06T09:09:56.207Z,7.40
2018-10-06T09:10:56.238Z,6.50
2018-10-06T09:11:56.164Z,7.00
2018-10-06T09:12:56.156Z,7.80
2018-10-06T09:13:56.154Z,6.50
2018-10-06T09:14:56.163Z,6.00
2018-10-06T09:15:56.112Z,7.00
2018-10-06T09:16:56.102Z,8.80
2018-10-06T09:17:56.162Z,6.00
2018-10-06T09:18:56.085Z,5.90
2018-10-06T09:19:56.113Z,6.40
2018-10-06T09:20:56.083Z,7.30
2018-10-06T09:21:56.051Z,6.70
2018-10-06T09:22:56.045Z,8.50
2018-10-06T09:23:56.030Z,6.30
2018-10-06T09:24:56.046Z,6.30
2018-10-06T09:25:56.036Z,5.90
2018-10-06T09:26:55.994Z,5.90
2018-10-06T09:27:55.995Z,5.60
2018-10-06T09:28:56.017Z,9.20
2018-10-06T09:29:55.960Z,6.20
2018-10-06T09:30:55.968Z,5.60
2018-10-06T09:31:55.962Z,5.50
2018-10-06T09:32:55.928Z,8.60
2018-10-06T09:33:55.918Z,6.80
2018-10-06T09:34:55.904Z,6.20
2018-10-06T09:35:55.893Z,6.00
2018-10-06T09:36:55.916Z,8.00
2018-10-06T09:37:55.869Z,7.20
2018-10-06T09:38:55.862Z,5.70
2018-10-06T09:39:55.845Z,7.60
2018-10-06T09:40:55.837Z,7.60
2018-10-06T09:41:55.958Z,8.80
2018-10-06T09:42:55.833Z,6.10
2018-10-06T09:43:55.804Z,5.90
2018-10-06T09:44:55.787Z,6.30
2018-10-06T09:45:55.783Z,5.70
2018-10-06T09:46:55.793Z,5.80
2018-10-06T09:47:55.818Z,5.70
2018-10-06T09:48:55.752Z,7.50
2018-10-06T09:49:55.751Z,7.90
2018-10-06T09:50:55.724Z,5.70
2018-10-06T09:51:55.735Z,9.40
2018-10-06T09:52:55.699Z,5.10
2018-10-06T09:53:55.688Z,6.30
2018-10-06T09:54:55.710Z,6.20
2018-10-06T09:55:55.670Z,7.10
2018-10-06T09:56:55.656Z,6.70
2018-10-06T09:57:55.649Z,6.00
2018-10-06T09:58:55.669Z,6.10
2018-10-06T09:59:55.624Z,5.60
2018-10-06T10:00:55.660Z,6.20
2018-10-06T10:01:55.683Z,9.80
2018-10-06T10:02:55.589Z,5.40
2018-10-06T10:03:55.605Z,7.20
2018-10-06T10:04:55.592Z,4.80
2018-10-06T10:05:55.627Z,6.00
2018-10-06T10:06:55.550Z,5.90
2018-10-06T10:07:55.542Z,5.20
2018-10-06T10:08:55.536Z,4.20
2018-10-06T10:09:55.651Z,4.70
2018-10-06T10:10:55.534Z,6.80
2018-10-06T10:11:55.522Z,5.60
2018-10-06T10:12:55.492Z,5.40
2018-10-06T10:13:55.471Z,4.80
2018-10-06T10:14:55.503Z,5.00
2018-10-06T10:15:55.440Z,5.50
2018-10-06T10:16:55.489Z,4.80
2018-10-06T10:17:55.449Z,5.80
2018-10-06T10:18:55.415Z,4.80
2018-10-06T10:19:55.424Z,4.60
2018-10-06T10:20:55.394Z,5.90
2018-10-06T10:21:55.424Z,5.90
2018-10-06T10:22:55.465Z,5.90
2018-10-06T10:23:55.439Z,4.80
2018-10-06T10:24:55.343Z,5.90
2018-10-06T10:25:55.337Z,8.10
2018-10-06T10:26:55.343Z,5.90
2018-10-06T10:27:55.312Z,4.80
2018-10-06T10:28:55.349Z,4.60
2018-10-06T10:29:55.286Z,5.40
2018-10-06T10:30:55.308Z,7.10
2018-10-06T10:31:55.273Z,6.10
2018-10-06T10:32:55.253Z,5.80
2018-10-06T10:33:55.252Z,6.10
2018-10-06T10:34:55.238Z,4.80
2018-10-06T10:35:55.244Z,4.80
2018-10-06T10:36:55.212Z,4.50
2018-10-06T10:37:55.200Z,7.50
2018-10-06T10:38:55.184Z,5.20
2018-10-06T10:39:55.217Z,4.30
2018-10-06T10:40:55.168Z,5.40
2018-10-06T10:41:55.160Z,5.30
2018-10-06T10:42:55.140Z,5.40
2018-10-06T10:43:55.228Z,5.90
2018-10-06T10:44:55.129Z,6.10
2018-10-06T10:45:55.107Z,6.20
2018-10-06T10:46:55.101Z,5.80
2018-10-06T10:47:55.114Z,4.70
2018-10-06T10:48:55.076Z,4.60
2018-10-06T10:49:55.117Z,4.20
2018-10-06T10:50:55.130Z,5.40
2018-10-06T10:51:55.041Z,4.00
2018-10-06T10:52:55.038Z,4.60
2018-10-06T10:53:55.027Z,4.60
2018-10-06T10:54:55.053Z,4.60
2018-10-06T10:55:55.066Z,3.80
2018-10-06T10:56:54.994Z,4.90
2018-10-06T10:57:54.979Z,4.90
2018-10-06T10:58:54.966Z,4.70
2018-10-06T10:59:55.166Z,3.90
2018-10-06T11:00:54.944Z,3.70
2018-10-06T11:01:54.939Z,5.70
2018-10-06T11:02:54.929Z,4.60
2018-10-06T11:03:55.002Z,4.90
2018-10-06T11:04:55.012Z,3.80
2018-10-06T11:05:54.887Z,3.50
2018-10-06T11:06:54.874Z,4.30
2018-10-06T11:07:54.873Z,6.30
2018-10-06T11:08:54.863Z,3.90
2018-10-06T11:09:54.872Z,5.60
2018-10-06T11:10:54.870Z,4.70
2018-10-06T11:11:54.850Z,5.30
2018-10-06T11:12:54.815Z,3.60
2018-10-06T11:13:54.823Z,6.30
2018-10-06T11:14:54.825Z,4.10
2018-10-06T11:15:54.790Z,4.70
2018-10-06T11:16:54.791Z,4.50
2018-10-06T11:17:54.758Z,5.20
2018-10-06T11:18:54.747Z,5.00
2018-10-06T11:19:54.768Z,4.30
2018-10-06T11:20:54.771Z,5.10
2018-10-06T11:21:54.720Z,5.70
2018-10-06T11:22:54.725Z,4.30
2018-10-06T11:23:54.690Z,4.10
2018-10-06T11:24:54.728Z,5.00
2018-10-06T11:25:54.672Z,5.30
2018-10-06T11:26:54.700Z,5.20
2018-10-06T11:27:54.643Z,5.90
2018-10-06T11:28:54.675Z,4.90
2018-10-06T11:29:54.633Z,5.70
2018-10-06T11:30:54.613Z,4.80
2018-10-06T11:31:54.628Z,3.80
2018-10-06T11:32:54.597Z,5.50
2018-10-06T11:33:54.586Z,4.70
2018-10-06T11:34:54.591Z,4.90
2018-10-06T11:35:54.572Z,3.60
2018-10-06T11:36:54.594Z,4.90
2018-10-06T11:37:54.540Z,3.10
2018-10-06T11:38:54.537Z,3.50
2018-10-06T11:39:54.509Z,4.70
2018-10-06T11:40:54.539Z,5.20
2018-10-06T11:41:54.485Z,4.10
2018-10-06T11:42:54.559Z,4.20
2018-10-06T11:43:54.483Z,4.20
2018-10-06T11:44:54.461Z,3.40
2018-10-06T11:45:54.449Z,3.80
2018-10-06T11:46:54.471Z,5.30
2018-10-06T11:47:54.422Z,4.20
2018-10-06T11:48:54.418Z,4.40
2018-10-06T11:49:54.461Z,5.20
2018-10-06T11:50:54.385Z,3.70
2018-10-06T11:51:54.405Z,4.50
2018-10-06T11:52:54.385Z,5.10
2018-10-06T11:53:54.404Z,4.80
2018-10-06T11:54:54.363Z,4.40
2018-10-06T11:55:54.341Z,4.60
2018-10-06T11:56:54.328Z,4.80
2018-10-06T11:57:54.346Z,3.70
2018-10-06T11:58:54.331Z,6.70
2018-10-06T11:59:54.415Z,4.40
2018-10-06T12:00:54.279Z,5.30
2018-10-06T12:01:54.289Z,4.20
2018-10-06T12:02:54.274Z,4.80
2018-10-06T12:03:54.284Z,4.50
2018-10-06T12:04:54.243Z,3.90
2018-10-06T12:05:54.388Z,4.60
2018-10-06T12:06:54.244Z,3.60
2018-10-06T12:07:54.255Z,5.00
2018-10-06T12:08:54.196Z,3.90
2018-10-06T12:09:54.240Z,4.50
2018-10-06T12:10:54.280Z,3.50
2018-10-06T12:11:54.161Z,4.70
2018-10-06T12:12:54.153Z,5.60
2018-10-06T12:13:54.146Z,5.00
2018-10-06T12:14:54.154Z,5.70
2018-10-06T12:15:54.162Z,3.60
2018-10-06T12:16:54.139Z,4.00
2018-10-06T12:17:54.091Z,5.10
2018-10-06T12:18:54.091Z,5.10
2018-10-06T12:19:54.084Z,3.70
2018-10-06T12:20:54.065Z,3.50
2018-10-06T12:21:54.071Z,4.40
2018-10-06T12:22:54.046Z,5.30
2018-10-06T12:23:54.050Z,3.40
2018-10-06T12:24:54.021Z,3.80
2018-10-06T12:25:54.046Z,3.50
2018-10-06T12:26:54.025Z,3.60
2018-10-06T12:27:53.985Z,5.80
2018-10-06T12:28:53.978Z,4.50
2018-10-06T12:29:53.976Z,4.00
2018-10-06T12:30:53.975Z,5.20
2018-10-06T12:31:53.936Z,4.80
2018-10-06T12:32:54.001Z,5.90
2018-10-06T12:33:53.936Z,4.30
2018-10-06T12:34:54.082Z,3.50
2018-10-06T12:35:53.900Z,4.30
2018-10-06T12:36:53.882Z,4.60
2018-10-06T12:37:53.901Z,4.10
2018-10-06T12:38:53.892Z,4.40
2018-10-06T12:39:53.857Z,5.70
2018-10-06T12:40:53.839Z,4.00
2018-10-06T12:41:53.902Z,4.00
2018-10-06T12:42:53.822Z,4.80
2018-10-06T12:43:53.834Z,3.50
2018-10-06T12:44:53.810Z,4.90
2018-10-06T12:45:53.795Z,4.80
2018-10-06T12:46:53.773Z,4.00
2018-10-06T12:47:53.790Z,5.20
2018-10-06T12:48:53.749Z,3.40
2018-10-06T12:49:53.738Z,5.70
2018-10-06T12:50:53.727Z,4.30
2018-10-06T12:51:53.751Z,3.60
2018-10-06T12:52:53.710Z,3.50
2018-10-06T12:53:53.698Z,3.70
2018-10-06T12:54:53.709Z,4.10
2018-10-06T12:55:53.684Z,3.90
2018-10-06T12:56:53.689Z,5.50
2018-10-06T12:57:53.649Z,3.90
2018-10-06T12:58:53.640Z,4.50
2018-10-06T12:59:53.668Z,5.30
2018-10-06T13:00:53.644Z,3.90
2018-10-06T13:01:53.607Z,3.20
2018-10-06T13:02:53.594Z,3.10
2018-10-06T13:03:53.590Z,4.00
2018-10-06T13:04:53.604Z,4.70
2018-10-06T13:05:53.561Z,3.60
2018-10-06T13:06:53.591Z,3.60
2018-10-06T13:07:53.540Z,5.00
2018-10-06T13:08:53.557Z,3.90
2018-10-06T13:09:53.557Z,3.70
2018-10-06T13:10:53.509Z,4.30
2018-10-06T13:11:53.589Z,3.60
2018-10-06T13:12:53.488Z,3.70
2018-10-06T13:13:53.481Z,4.30